RJTT/HND METAR and TAF weather

Enter ICAO airport designator
Station Type Date Time Source
RJTT METAR 2020/11/27 14:30 UTC NOAA

RJTT 271430Z 10006KT 9999 FEW010 SCT013 BKN018 12/10 Q1012 NOSIG RMK 1CU010 3CU013 7SC018 A2991


Station Type Date Time Source
RJTT Decoded METAR 2020/11/27 14:30 UTC NOAA

Tokyo International Airport, Japan (RJTT) 35-33N 139-47E 8M
Nov 27, 2020 - 09:30 AM EST / 2020.11.27 1430 UTC
Wind: from the E (100 degrees) at 7 MPH (6 KT):0
Visibility: greater than 7 mile(s):0
Sky conditions: mostly cloudy
Temperature: 53 F (12 C)
Dew Point: 50 F (10 C)
Relative Humidity: 87%
Pressure (altimeter): 29.88 in. Hg (1012 hPa)
ob: RJTT 271430Z 10006KT 9999 FEW010 SCT013 BKN018 12/10 Q1012 NOSIG RMK 1CU010 3CU013 7SC018 A2991
cycle: 14

Station Type Date Time Source
RJTT TAF 2020/11/27 14:48 UTC NOAA

TAF
AMD RJTT 271434Z 2714/2818 10006KT 9999 FEW020
BECMG 2716/2718 34008KT
BECMG 2800/2803 34020KT
BECMG 2812/2815 35010KT

Example: see airport list